Time;durP1;ratioP1;P1;durP2;ratioP2;P2;SDS_P1;SDS_P2;PMS_P1;PMS_P2;Temp;Humidity;BMP_temperature;BMP_pressure;BME280_temperature;BME280_humidity;BME280_pressure;Samples;Min_cycle;Max_cycle;Signal;HPM_P1;HPM_P2
2021/10/29 00:00:38;;;;;;;20.10;13.63;;;5.90;99.90;;;;;;5115494;28;20070;-71
2021/10/29 00:03:06;;;;;;;17.40;12.67;;;5.90;99.90;;;;;;5115528;28;20058;-73
2021/10/29 00:05:34;;;;;;;19.40;13.27;;;6.00;99.90;;;;;;5115545;28;20093;-73
2021/10/29 00:08:01;;;;;;;18.50;13.10;;;6.10;99.90;;;;;;5115472;28;20047;-72
2021/10/29 00:10:29;;;;;;;20.27;12.57;;;6.00;99.90;;;;;;5115585;28;20100;-72
2021/10/29 00:12:57;;;;;;;15.30;12.13;;;6.00;99.90;;;;;;5115397;28;20112;-71
2021/10/29 00:15:24;;;;;;;16.53;11.50;;;5.90;99.90;;;;;;5114772;28;20048;-73
2021/10/29 00:17:51;;;;;;;18.43;11.97;;;5.80;99.90;;;;;;5115501;28;20074;-74
2021/10/29 00:20:17;;;;;;;24.83;13.53;;;5.70;99.90;;;;;;5115359;28;20050;-72
2021/10/29 00:22:44;;;;;;;18.17;12.67;;;5.70;99.90;;;;;;5115245;28;20055;-73
2021/10/29 00:25:10;;;;;;;24.90;13.70;;;5.60;99.90;;;;;;5114573;28;20547;-73
2021/10/29 00:27:37;;;;;;;18.17;12.73;;;5.50;99.90;;;;;;5114994;28;20128;-74
2021/10/29 00:30:07;;;;;;;24.63;14.70;;;5.50;99.90;;;;;;5114614;27;20116;-73
2021/10/29 00:39:17;;;;;;;18.92;13.18;;;5.40;99.90;;;;;;5115031;28;20410;-73
2021/10/29 00:41:44;;;;;;;19.27;13.87;;;5.30;99.90;;;;;;5114829;28;20044;-72
2021/10/29 00:44:10;;;;;;;26.47;16.20;;;5.30;99.90;;;;;;5114016;28;20494;-73
2021/10/29 00:46:38;;;;;;;21.73;15.40;;;5.40;99.90;;;;;;5114679;28;20048;-71
2021/10/29 00:49:05;;;;;;;21.90;14.47;;;5.30;99.90;;;;;;5114931;28;20066;-70
2021/10/29 00:51:32;;;;;;;22.40;14.13;;;5.40;99.90;;;;;;5114820;28;20051;-72
2021/10/29 00:53:58;;;;;;;24.63;14.00;;;5.40;99.90;;;;;;5113985;28;20503;-73
2021/10/29 00:56:26;;;;;;;25.30;15.33;;;5.60;99.90;;;;;;5114157;28;20127;-72
2021/10/29 00:58:52;;;;;;;26.13;14.20;;;5.80;99.90;;;;;;5114166;28;20530;-73
2021/10/29 01:01:19;;;;;;;20.20;13.17;;;6.00;99.90;;;;;;5114590;28;20682;-73
2021/10/29 01:03:47;;;;;;;21.07;14.37;;;6.00;99.90;;;;;;5113973;27;20047;-73
2021/10/29 01:06:13;;;;;;;24.63;13.67;;;5.90;99.90;;;;;;5114391;28;20063;-73
2021/10/29 01:08:41;;;;;;;19.40;12.90;;;5.90;99.90;;;;;;5114207;28;20088;-73
2021/10/29 01:11:14;;;;;;;26.33;15.93;;;5.90;99.90;;;;;;5114279;28;20043;-73
2021/10/29 01:13:44;;;;;;;22.07;14.23;;;6.00;99.90;;;;;;5113683;28;20052;-73
2021/10/29 01:16:11;;;;;;;23.43;14.80;;;6.30;99.90;;;;;;5114572;27;20044;-72
2021/10/29 01:18:38;;;;;;;20.70;15.50;;;6.20;99.90;;;;;;5114053;28;20492;-73
2021/10/29 01:21:06;;;;;;;27.17;14.63;;;6.20;99.90;;;;;;5114649;27;20044;-73
2021/10/29 01:23:34;;;;;;;22.97;13.97;;;6.30;99.90;;;;;;5114560;28;20092;-71
2021/10/29 01:26:03;;;;;;;22.90;14.73;;;6.30;99.90;;;;;;5114634;28;20048;-72
2021/10/29 01:28:30;;;;;;;25.63;15.20;;;6.30;99.90;;;;;;5114874;28;20453;-71
2021/10/29 01:30:56;;;;;;;22.83;15.50;;;6.30;99.90;;;;;;5114559;28;20051;-73
2021/10/29 01:33:23;;;;;;;22.03;15.40;;;6.40;99.90;;;;;;5113640;28;20100;-72
2021/10/29 01:35:50;;;;;;;22.13;14.47;;;6.40;99.90;;;;;;5114172;27;20101;-72
2021/10/29 01:38:18;;;;;;;23.77;14.80;;;6.40;99.90;;;;;;5114426;28;20456;-71
2021/10/29 01:40:45;;;;;;;22.63;14.00;;;6.40;99.90;;;;;;5114003;28;20044;-73
2021/10/29 01:43:12;;;;;;;18.93;14.63;;;6.50;99.90;;;;;;5113913;28;20051;-73
2021/10/29 01:45:38;;;;;;;20.50;14.93;;;6.40;99.90;;;;;;5113097;28;20040;-72
2021/10/29 01:48:05;;;;;;;28.57;15.33;;;6.30;99.90;;;;;;5113661;28;20055;-74
2021/10/29 01:50:32;;;;;;;28.20;16.00;;;6.20;99.90;;;;;;5113279;28;20097;-74
2021/10/29 01:52:59;;;;;;;19.70;15.03;;;6.00;99.90;;;;;;5111891;28;20052;-72
2021/10/29 01:55:27;;;;;;;20.60;14.50;;;5.90;99.90;;;;;;5112851;28;20040;-72
2021/10/29 01:57:54;;;;;;;28.60;17.07;;;5.90;99.90;;;;;;5113351;28;20044;-74
2021/10/29 02:00:20;;;;;;;21.57;15.37;;;5.90;99.90;;;;;;5113157;28;20117;-74
2021/10/29 02:02:47;;;;;;;23.23;16.43;;;5.80;99.90;;;;;;5113413;28;20047;-73
2021/10/29 02:05:13;;;;;;;29.27;14.63;;;5.70;99.90;;;;;;5113322;28;20100;-73
2021/10/29 02:07:40;;;;;;;24.40;15.73;;;5.70;99.90;;;;;;5113362;27;20043;-73
2021/10/29 02:10:08;;;;;;;31.57;17.87;;;5.70;99.90;;;;;;5113361;28;20072;-73
2021/10/29 02:12:36;;;;;;;23.10;14.50;;;5.60;99.90;;;;;;5112994;28;20051;-74
2021/10/29 02:15:04;;;;;;;27.30;16.97;;;5.60;99.90;;;;;;5112786;28;20055;-75
2021/10/29 02:17:31;;;;;;;23.43;16.67;;;5.70;99.90;;;;;;5113205;28;20509;-73
2021/10/29 02:19:58;;;;;;;24.20;15.60;;;5.80;99.90;;;;;;5112756;28;20046;-72
2021/10/29 02:22:25;;;;;;;25.57;15.63;;;5.90;99.90;;;;;;5112698;28;20067;-73
2021/10/29 02:24:51;;;;;;;25.07;16.17;;;5.80;99.90;;;;;;5112369;28;20464;-73
2021/10/29 02:27:18;;;;;;;34.00;18.33;;;5.70;99.90;;;;;;5112885;27;20093;-73
2021/10/29 02:29:46;;;;;;;27.80;16.93;;;5.70;99.90;;;;;;5112699;28;20089;-74
2021/10/29 02:32:12;;;;;;;31.27;17.63;;;5.70;99.90;;;;;;5112301;28;20090;-72
2021/10/29 02:34:39;;;;;;;26.00;17.27;;;5.70;99.90;;;;;;5111913;28;20048;-74
2021/10/29 02:37:06;;;;;;;30.13;20.00;;;5.80;99.90;;;;;;5112416;28;20044;-74
2021/10/29 02:39:32;;;;;;;32.27;19.53;;;5.70;99.90;;;;;;5112624;28;20044;-73
2021/10/29 02:42:02;;;;;;;20.77;18.30;;;5.80;99.90;;;;;;5112644;28;20275;-73
2021/10/29 02:44:28;;;;;;;30.93;18.47;;;5.90;99.90;;;;;;5111931;28;20050;-72
2021/10/29 02:46:56;;;;;;;25.47;16.47;;;5.90;99.90;;;;;;5112510;28;20495;-73
2021/10/29 02:49:23;;;;;;;26.27;17.90;;;5.90;99.90;;;;;;5112281;28;20112;-74
2021/10/29 02:51:49;;;;;;;25.33;17.20;;;5.90;99.90;;;;;;5112586;28;20121;-73
2021/10/29 02:54:16;;;;;;;24.70;16.67;;;5.80;99.90;;;;;;5111912;28;20050;-72
2021/10/29 02:56:43;;;;;;;23.93;17.70;;;5.90;99.90;;;;;;5112377;28;20043;-73
2021/10/29 02:59:09;;;;;;;26.03;18.47;;;5.90;99.90;;;;;;5112462;28;20048;-71
2021/10/29 03:01:37;;;;;;;26.93;18.40;;;5.90;99.90;;;;;;5112167;28;20044;-74
2021/10/29 03:04:05;;;;;;;31.23;18.53;;;5.80;99.90;;;;;;5111576;28;20051;-72
2021/10/29 03:06:32;;;;;;;26.27;17.37;;;5.80;99.90;;;;;;5112552;28;20124;-73
2021/10/29 03:08:58;;;;;;;28.90;19.23;;;5.90;99.90;;;;;;5112350;28;20043;-73
2021/10/29 03:11:25;;;;;;;26.17;17.73;;;6.00;99.90;;;;;;5112633;28;20480;-74
2021/10/29 03:13:52;;;;;;;26.37;17.27;;;6.00;99.90;;;;;;5111927;28;20730;-72
2021/10/29 03:16:19;;;;;;;29.43;18.77;;;6.00;99.90;;;;;;5112569;28;20083;-73
2021/10/29 03:18:45;;;;;;;31.03;19.57;;;5.90;99.90;;;;;;5112405;28;20047;-73
2021/10/29 03:21:13;;;;;;;29.30;18.20;;;5.90;99.90;;;;;;5112875;28;20075;-73
2021/10/29 03:23:41;;;;;;;31.07;19.77;;;5.80;99.90;;;;;;5112201;28;20537;-74
2021/10/29 03:26:07;;;;;;;24.93;18.97;;;5.80;99.90;;;;;;5112459;28;20046;-74
2021/10/29 03:28:34;;;;;;;33.37;19.37;;;5.80;99.90;;;;;;5112493;28;20446;-71
2021/10/29 03:31:01;;;;;;;27.97;18.20;;;5.70;99.90;;;;;;5112460;28;20043;-72
2021/10/29 03:33:27;;;;;;;34.10;19.33;;;5.60;99.90;;;;;;5112105;28;20051;-72
2021/10/29 03:35:54;;;;;;;31.70;19.33;;;5.60;99.90;;;;;;5112290;28;20047;-73
2021/10/29 03:38:44;;;;;;;28.93;19.23;;;5.60;99.90;;;;;;5112535;28;20044;-74
2021/10/29 03:41:14;;;;;;;25.63;17.30;;;5.60;99.90;;;;;;5112247;28;20051;-74
2021/10/29 03:43:45;;;;;;;27.37;17.50;;;5.60;99.90;;;;;;5111352;28;20104;-73
2021/10/29 03:46:15;;;;;;;30.83;19.17;;;5.70;99.90;;;;;;5112214;28;20130;-73
2021/10/29 03:48:49;;;;;;;35.33;18.93;;;5.70;99.90;;;;;;5112250;28;20101;-74
2021/10/29 03:51:19;;;;;;;31.07;19.87;;;5.70;99.90;;;;;;5111831;28;20543;-74
2021/10/29 03:53:51;;;;;;;33.57;21.50;;;5.60;99.90;;;;;;5111671;28;20043;-72
2021/10/29 03:56:18;;;;;;;29.35;18.77;;;5.70;99.90;;;;;;5111635;28;20075;-73
2021/10/29 03:58:45;;;;;;;26.87;18.23;;;5.60;99.90;;;;;;5111941;28;20044;-74
2021/10/29 04:01:12;;;;;;;30.63;20.27;;;5.50;99.90;;;;;;5111752;28;20051;-73
2021/10/29 04:03:38;;;;;;;28.40;19.47;;;5.50;99.90;;;;;;5111267;28;20073;-74
2021/10/29 04:06:05;;;;;;;29.13;17.90;;;5.50;99.90;;;;;;5111972;28;20048;-73
2021/10/29 04:08:32;;;;;;;31.00;21.70;;;5.50;99.90;;;;;;5113133;28;20083;-74
2021/10/29 04:11:00;;;;;;;32.87;22.60;;;5.50;99.90;;;;;;5115895;28;20043;-73
2021/10/29 04:13:28;;;;;;;53.40;29.83;;;5.40;99.90;;;;;;5114976;28;20043;-73
2021/10/29 04:15:55;;;;;;;32.40;20.40;;;5.40;99.90;;;;;;5115427;28;20044;-72
2021/10/29 04:18:24;;;;;;;76.13;41.50;;;5.30;99.90;;;;;;5115410;28;20051;-74
2021/10/29 04:20:51;;;;;;;44.63;25.47;;;5.20;99.90;;;;;;5115363;28;20082;-73
2021/10/29 04:23:17;;;;;;;28.57;20.30;;;5.20;99.90;;;;;;5114848;28;20507;-72
2021/10/29 04:25:44;;;;;;;36.20;22.83;;;5.20;99.90;;;;;;5115710;28;20254;-73
2021/10/29 04:28:12;;;;;;;38.20;25.33;;;5.20;99.90;;;;;;5115652;28;20054;-74
2021/10/29 04:30:42;;;;;;;39.37;23.53;;;5.20;99.90;;;;;;5115040;27;20071;-74
2021/10/29 04:33:08;;;;;;;35.67;23.57;;;5.10;99.90;;;;;;5114790;28;20449;-72
2021/10/29 04:35:36;;;;;;;71.13;38.10;;;5.10;99.90;;;;;;5114989;28;20069;-74
2021/10/29 04:38:03;;;;;;;33.33;22.93;;;5.00;99.90;;;;;;5115763;28;20053;-71
2021/10/29 04:40:29;;;;;;;35.93;24.17;;;5.10;99.90;;;;;;5116089;28;20131;-72
2021/10/29 04:42:56;;;;;;;34.00;21.83;;;5.10;99.90;;;;;;5115608;28;20047;-72
2021/10/29 04:45:24;;;;;;;58.10;32.70;;;5.00;99.90;;;;;;5114323;28;20051;-72
2021/10/29 04:47:51;;;;;;;34.70;22.73;;;5.00;99.90;;;;;;5115065;28;20101;-72
2021/10/29 04:50:20;;;;;;;57.93;34.87;;;5.00;99.90;;;;;;5114673;28;20453;-72
2021/10/29 04:52:46;;;;;;;43.83;29.83;;;5.00;99.90;;;;;;5114854;28;20075;-74
2021/10/29 04:55:13;;;;;;;40.00;26.50;;;4.90;99.90;;;;;;5114083;28;20120;-73
2021/10/29 04:57:39;;;;;;;53.17;29.77;;;4.90;99.90;;;;;;5114522;28;20039;-74
2021/10/29 05:00:08;;;;;;;45.73;28.17;;;4.90;99.90;;;;;;5114180;28;20100;-73
2021/10/29 05:02:36;;;;;;;53.77;30.57;;;4.80;99.90;;;;;;5114229;28;20048;-73
2021/10/29 05:05:04;;;;;;;39.90;24.40;;;4.80;99.90;;;;;;5113846;27;20069;-73
2021/10/29 05:07:31;;;;;;;36.80;22.13;;;4.90;99.90;;;;;;5114375;28;20491;-73
2021/10/29 05:09:58;;;;;;;39.97;23.63;;;4.90;99.90;;;;;;5114940;27;20089;-74
2021/10/29 05:12:26;;;;;;;69.70;36.90;;;4.90;99.90;;;;;;5114400;27;20132;-72
2021/10/29 05:14:52;;;;;;;41.40;25.03;;;4.70;99.90;;;;;;5113628;28;20043;-73
2021/10/29 05:17:19;;;;;;;75.10;46.70;;;4.60;99.90;;;;;;5113991;28;20505;-72
2021/10/29 05:19:47;;;;;;;85.67;45.17;;;4.60;99.90;;;;;;5114169;28;20044;-73
2021/10/29 05:22:13;;;;;;;46.03;27.23;;;4.60;99.90;;;;;;5114110;28;20454;-73
2021/10/29 05:24:40;;;;;;;37.60;24.30;;;4.60;99.90;;;;;;5113613;28;20052;-72
2021/10/29 05:27:07;;;;;;;53.53;29.60;;;4.60;99.90;;;;;;5113947;28;20040;-73
2021/10/29 05:29:34;;;;;;;41.40;25.77;;;4.50;99.90;;;;;;5113684;28;20536;-74
2021/10/29 05:32:02;;;;;;;40.53;24.40;;;4.40;99.90;;;;;;5113688;28;20043;-73
2021/10/29 05:34:29;;;;;;;51.37;31.70;;;4.60;99.90;;;;;;5113497;28;20444;-73
2021/10/29 05:36:57;;;;;;;84.60;46.50;;;4.50;99.90;;;;;;5114043;28;20073;-71
2021/10/29 05:39:24;;;;;;;35.37;22.97;;;4.50;99.90;;;;;;5113674;28;20048;-72
2021/10/29 05:41:50;;;;;;;52.70;30.33;;;4.50;99.90;;;;;;5113735;28;20049;-72
2021/10/29 05:44:18;;;;;;;34.57;23.20;;;4.50;99.90;;;;;;5113252;28;20102;-73
2021/10/29 05:46:46;;;;;;;35.70;23.47;;;4.40;99.90;;;;;;5113453;28;20124;-72
2021/10/29 05:49:14;;;;;;;33.77;22.23;;;4.40;99.90;;;;;;5113677;28;20526;-73
2021/10/29 05:51:44;;;;;;;35.77;23.30;;;4.40;99.90;;;;;;5113494;28;20051;-72
2021/10/29 05:54:24;;;;;;;34.90;20.60;;;4.40;99.90;;;;;;5113154;28;20051;-72
2021/10/29 05:56:51;;;;;;;35.03;23.13;;;4.30;99.90;;;;;;5113801;28;20055;-72
2021/10/29 05:59:17;;;;;;;37.73;26.13;;;4.30;99.90;;;;;;5113772;28;20048;-72
2021/10/29 06:01:44;;;;;;;48.77;28.77;;;4.30;99.90;;;;;;5113405;28;20052;-73
2021/10/29 06:04:11;;;;;;;33.70;21.97;;;4.20;99.90;;;;;;5112747;28;20096;-74
2021/10/29 06:06:38;;;;;;;45.50;25.50;;;4.00;99.90;;;;;;5112945;28;20044;-72
2021/10/29 06:09:04;;;;;;;36.30;23.87;;;4.10;99.90;;;;;;5112909;28;20134;-73
2021/10/29 06:11:32;;;;;;;35.60;22.20;;;4.10;99.90;;;;;;5112795;28;20523;-73
2021/10/29 06:13:59;;;;;;;41.87;25.23;;;4.00;99.90;;;;;;5112691;28;20096;-74
2021/10/29 06:16:26;;;;;;;35.50;21.17;;;4.00;99.90;;;;;;5113054;28;20085;-72
2021/10/29 06:18:52;;;;;;;37.30;23.80;;;4.10;99.90;;;;;;5112899;28;20495;-73
2021/10/29 06:21:21;;;;;;;37.13;23.57;;;4.30;99.90;;;;;;5113015;28;20050;-74
2021/10/29 06:23:58;;;;;;;38.00;23.77;;;4.40;99.90;;;;;;5112911;28;20043;-73
2021/10/29 06:26:26;;;;;;;40.83;25.23;;;4.70;99.90;;;;;;5113237;28;20071;-74
2021/10/29 06:28:55;;;;;;;34.13;24.43;;;4.80;99.90;;;;;;5113025;28;20427;-73
2021/10/29 06:31:22;;;;;;;39.53;24.93;;;5.00;99.90;;;;;;5112629;28;20048;-72
2021/10/29 06:33:49;;;;;;;39.77;23.97;;;5.20;99.90;;;;;;5112129;28;20048;-72
2021/10/29 06:36:16;;;;;;;25.93;19.93;;;5.40;99.90;;;;;;5112453;28;20055;-72
2021/10/29 06:38:43;;;;;;;35.37;22.20;;;5.80;99.90;;;;;;5112543;28;20043;-73
2021/10/29 06:41:10;;;;;;;30.63;20.03;;;6.00;99.90;;;;;;5112775;28;20484;-71
2021/10/29 06:43:40;;;;;;;31.00;19.87;;;6.20;99.90;;;;;;5112199;28;20450;-72
2021/10/29 06:46:22;;;;;;;31.07;20.87;;;6.40;99.90;;;;;;5112546;28;20047;-74
2021/10/29 06:48:52;;;;;;;33.23;19.60;;;6.70;99.90;;;;;;5112383;28;20097;-75
2021/10/29 06:59:50;;;;;;;30.13;18.90;;;7.40;99.90;;;;;;5112084;28;20055;-74
2021/10/29 07:02:59;;;;;;;28.83;19.93;;;7.50;99.90;;;;;;5112575;28;20047;-77
2021/10/29 07:41:16;;;;;;;25.00;17.77;;;11.30;99.90;;;;;;5111953;28;20124;-74
2021/10/29 07:43:47;;;;;;;28.80;19.02;;;11.40;99.90;;;;;;5113564;28;20044;-73
2021/10/29 07:46:14;;;;;;;25.02;18.23;;;11.80;99.90;;;;;;5115937;28;20079;-75
2021/10/29 07:48:42;;;;;;;31.98;19.88;;;12.00;99.90;;;;;;5116088;28;20126;-73
2021/10/29 07:51:10;;;;;;;26.67;18.45;;;12.00;99.90;;;;;;5115614;28;20048;-72
2021/10/29 07:53:36;;;;;;;26.50;19.88;;;11.70;99.90;;;;;;5114999;28;20096;-72
2021/10/29 07:56:06;;;;;;;25.63;18.25;;;11.50;99.90;;;;;;5115691;28;20048;-73
2021/10/29 07:58:34;;;;;;;28.25;19.73;;;11.90;99.90;;;;;;5115669;28;20457;-73
2021/10/29 08:01:01;;;;;;;25.25;19.10;;;12.00;99.90;;;;;;5115227;27;20044;-72
2021/10/29 08:03:28;;;;;;;28.13;17.92;;;12.00;99.90;;;;;;5114961;28;20074;-72
2021/10/29 08:05:54;;;;;;;28.10;19.05;;;12.40;99.90;;;;;;5115301;28;20488;-72
2021/10/29 08:08:23;;;;;;;24.48;18.80;;;13.10;99.90;;;;;;5115095;28;20043;-72
2021/10/29 08:10:50;;;;;;;27.10;18.48;;;13.40;99.90;;;;;;5115362;28;20051;-72
2021/10/29 08:13:18;;;;;;;23.95;17.85;;;13.60;99.90;;;;;;5114755;28;20055;-72
2021/10/29 08:15:45;;;;;;;25.58;17.50;;;13.60;99.90;;;;;;5116244;28;20043;-73
2021/10/29 08:18:12;;;;;;;26.25;18.83;;;14.20;99.90;;;;;;5115156;28;20093;-73
2021/10/29 08:20:39;;;;;;;27.25;19.30;;;14.60;99.90;;;;;;5115007;28;20144;-72
2021/10/29 08:23:08;;;;;;;24.98;17.30;;;14.90;99.90;;;;;;5115105;28;20445;-72
2021/10/29 08:25:36;;;;;;;27.00;18.90;;;14.70;99.90;;;;;;5114996;28;20093;-73
2021/10/29 08:28:02;;;;;;;24.15;17.35;;;14.50;99.90;;;;;;5115012;28;20097;-73
2021/10/29 08:30:29;;;;;;;25.55;18.38;;;14.20;99.90;;;;;;5114906;27;20047;-74
2021/10/29 08:32:56;;;;;;;27.15;17.00;;;13.70;99.90;;;;;;5114706;28;20048;-74
2021/10/29 08:35:23;;;;;;;22.95;17.17;;;14.40;99.90;;;;;;5114267;28;20044;-73
2021/10/29 08:37:51;;;;;;;21.45;16.80;;;15.10;99.90;;;;;;5115103;28;20064;-72
2021/10/29 08:40:20;;;;;;;25.60;18.20;;;15.70;99.40;;;;;;5114765;28;20071;-74
2021/10/29 08:42:49;;;;;;;21.75;17.40;;;14.90;99.30;;;;;;5114723;28;20048;-72
2021/10/29 08:45:17;;;;;;;22.35;17.17;;;14.80;99.90;;;;;;5114071;28;20044;-74
2021/10/29 08:47:45;;;;;;;21.88;16.35;;;15.40;98.90;;;;;;5114687;28;20047;-73
2021/10/29 08:50:13;;;;;;;22.60;16.10;;;15.90;97.90;;;;;;5114577;28;20043;-73
2021/10/29 08:52:43;;;;;;;24.90;16.50;;;16.40;94.90;;;;;;5114840;28;20467;-72
2021/10/29 08:55:10;;;;;;;21.77;18.25;;;16.30;94.40;;;;;;5113619;27;20044;-73
2021/10/29 08:57:37;;;;;;;22.48;15.90;;;15.60;95.20;;;;;;5114595;27;20039;-73
2021/10/29 09:00:14;;;;;;;29.55;16.88;;;14.80;97.70;;;;;;5114232;28;20407;-74
2021/10/29 09:02:46;;;;;;;22.90;16.13;;;14.50;99.00;;;;;;5114598;28;20047;-73
2021/10/29 09:05:17;;;;;;;24.17;17.58;;;15.20;98.60;;;;;;5113943;28;20039;-73
2021/10/29 09:07:53;;;;;;;24.52;17.33;;;15.00;96.80;;;;;;5114361;28;20043;-71
2021/10/29 09:32:43;;;;;;;22.80;15.05;;;17.10;90.10;;;;;;5113969;28;20097;-74
2021/10/29 09:35:12;;;;;;;21.35;16.52;;;17.90;89.50;;;;;;5113406;28;20127;-72
2021/10/29 09:38:01;;;;;;;21.77;15.38;;;18.50;83.30;;;;;;5113583;28;20096;-71
2021/10/29 09:40:29;;;;;;;17.83;14.02;;;18.00;83.30;;;;;;5113658;28;20069;-73
2021/10/29 09:43:02;;;;;;;20.25;15.00;;;18.00;84.80;;;;;;5113589;28;20084;-72
2021/10/29 09:45:31;;;;;;;18.08;14.90;;;17.40;86.10;;;;;;5113013;28;20047;-71
2021/10/29 09:48:15;;;;;;;23.08;15.40;;;18.10;85.60;;;;;;5113605;28;20495;-74
2021/10/29 09:50:50;;;;;;;19.45;15.63;;;17.50;86.50;;;;;;5113452;28;20051;-73
2021/10/29 09:56:05;;;;;;;19.58;13.77;;;17.70;85.00;;;;;;5111090;28;20449;-75
2021/10/29 09:58:32;;;;;;;18.83;15.40;;;18.50;82.40;;;;;;5113023;28;20043;-73
2021/10/29 10:01:00;;;;;;;21.23;15.65;;;18.50;80.70;;;;;;5113058;28;20073;-73
2021/10/29 10:03:30;;;;;;;17.88;15.18;;;19.20;79.70;;;;;;5112933;28;20071;-72
2021/10/29 10:05:57;;;;;;;19.33;14.15;;;19.40;78.20;;;;;;5112474;28;20143;-71
2021/10/29 10:08:27;;;;;;;21.38;15.40;;;20.30;76.00;;;;;;5112946;28;20074;-72
2021/10/29 10:10:55;;;;;;;18.75;14.02;;;19.00;74.00;;;;;;5119265;28;20126;-72
2021/10/29 10:13:22;;;;;;;20.48;16.33;;;19.60;75.90;;;;;;5112268;28;20047;-72
2021/10/29 10:15:52;;;;;;;18.25;14.55;;;19.50;75.00;;;;;;5112992;28;20047;-72
2021/10/29 10:18:20;;;;;;;20.08;16.52;;;20.50;73.10;;;;;;5112966;28;20044;-72
2021/10/29 10:20:49;;;;;;;15.65;14.02;;;20.10;71.70;;;;;;5112830;27;20039;-73
2021/10/29 10:23:19;;;;;;;16.55;13.85;;;19.80;72.50;;;;;;5112472;28;20089;-73
2021/10/29 10:26:05;;;;;;;20.95;15.65;;;19.50;73.30;;;;;;5112575;28;20495;-72
2021/10/29 10:28:45;;;;;;;17.95;14.93;;;18.60;76.50;;;;;;5112576;27;20457;-73
2021/10/29 10:43:05;;;;;;;16.70;12.98;;;19.80;71.70;;;;;;5085768;28;20047;-71
2021/10/29 10:45:36;;;;;;;19.40;15.95;;;20.50;70.70;;;;;;5112342;28;20044;-75
2021/10/29 10:48:12;;;;;;;21.02;14.50;;;21.00;68.50;;;;;;5112502;28;20044;-75
2021/10/29 10:50:43;;;;;;;18.90;14.40;;;20.70;66.90;;;;;;5113068;28;20419;-75
2021/10/29 10:53:19;;;;;;;18.33;14.65;;;20.90;67.80;;;;;;5112586;28;20066;-74
2021/10/29 10:56:15;;;;;;;19.42;13.40;;;20.90;66.80;;;;;;5112760;28;20394;-73
2021/10/29 10:58:56;;;;;;;18.10;14.07;;;20.40;69.70;;;;;;5112347;28;20431;-73
2021/10/29 11:07:16;;;;;;;17.17;13.88;;;20.40;69.80;;;;;;5098745;27;20483;-73
2021/10/29 11:10:04;;;;;;;15.77;14.05;;;21.10;67.40;;;;;;5112289;28;20048;-74
2021/10/29 11:13:06;;;;;;;17.38;13.55;;;21.20;65.40;;;;;;5112405;28;20101;-71
2021/10/29 11:15:33;;;;;;;;;;;21.10;65.60;;;;;;5112348;28;20079;-73
2021/10/29 11:18:02;;;;;;;15.02;12.30;;;22.30;64.80;;;;;;5114713;28;19919;-72
2021/10/29 11:20:43;;;;;;;17.35;14.13;;;22.80;60.60;;;;;;5116337;28;20044;-74
2021/10/29 11:23:11;;;;;;;17.15;14.05;;;22.10;63.40;;;;;;5115829;28;20054;-75
2021/10/29 11:25:50;;;;;;;25.55;18.60;;;22.70;61.20;;;;;;5116175;28;20040;-74
2021/10/29 11:28:18;;;;;;;20.27;13.70;;;23.10;60.10;;;;;;5116207;28;20047;-73
2021/10/29 11:30:46;;;;;;;14.68;12.85;;;23.00;58.90;;;;;;5116286;28;20047;-72
2021/10/29 11:33:15;;;;;;;18.20;12.70;;;22.60;60.40;;;;;;5115614;28;20043;-72
2021/10/29 11:35:42;;;;;;;14.93;13.32;;;22.10;61.20;;;;;;5116014;28;20080;-72
2021/10/29 11:38:08;;;;;;;16.38;13.68;;;22.80;60.90;;;;;;5115970;28;20150;-74
2021/10/29 11:40:36;;;;;;;14.27;12.02;;;22.10;61.20;;;;;;5115841;28;20105;-73
2021/10/29 11:43:04;;;;;;;14.85;13.23;;;21.80;62.00;;;;;;5116004;28;20051;-72
2021/10/29 11:45:32;;;;;;;15.75;12.48;;;21.70;63.40;;;;;;5115759;28;20043;-72
2021/10/29 11:47:59;;;;;;;15.70;13.52;;;22.20;61.90;;;;;;5115990;28;20043;-72
2021/10/29 11:50:25;;;;;;;15.10;13.50;;;23.20;59.40;;;;;;5115772;28;20131;-72
2021/10/29 11:52:52;;;;;;;15.73;12.82;;;23.60;58.40;;;;;;5115657;27;20099;-72
2021/10/29 11:55:23;;;;;;;13.43;11.73;;;23.70;57.70;;;;;;5115074;28;20075;-73
2021/10/29 11:57:59;;;;;;;14.88;12.57;;;23.40;58.30;;;;;;5115836;28;20050;-72
2021/10/29 12:00:42;;;;;;;13.13;11.60;;;24.40;56.80;;;;;;5115455;28;20043;-71
2021/10/29 12:06:11;;;;;;;14.45;12.38;;;24.90;55.00;;;;;;5115341;28;20089;-73
2021/10/29 12:08:38;;;;;;;14.48;12.98;;;24.90;53.80;;;;;;5115266;28;20474;-73
2021/10/29 12:11:07;;;;;;;15.07;12.13;;;25.00;54.50;;;;;;5115564;28;20047;-73
2021/10/29 12:13:36;;;;;;;14.25;12.43;;;24.70;54.40;;;;;;5114913;28;20044;-73
2021/10/29 12:16:14;;;;;;;17.50;12.65;;;23.90;55.60;;;;;;5115213;28;20044;-74
2021/10/29 12:18:51;;;;;;;16.23;12.15;;;22.00;58.50;;;;;;5115551;28;20043;-74
2021/10/29 12:21:20;;;;;;;13.43;12.02;;;22.80;58.80;;;;;;5115346;27;20096;-73
2021/10/29 12:23:50;;;;;;;17.58;12.45;;;22.30;59.40;;;;;;5114789;28;20488;-72
2021/10/29 12:26:19;;;;;;;14.43;12.63;;;22.10;59.60;;;;;;5115257;28;20043;-73
2021/10/29 12:28:50;;;;;;;19.23;13.40;;;21.60;61.00;;;;;;5114063;28;20131;-73
2021/10/29 12:31:31;;;;;;;17.48;14.73;;;21.80;60.90;;;;;;5115211;28;20516;-75
2021/10/29 12:37:22;;;;;;;19.23;12.38;;;21.70;60.30;;;;;;5109184;28;20384;-73
2021/10/29 12:54:07;;;;;;;15.75;11.88;;;20.70;64.70;;;;;;5051133;28;20055;-74
2021/10/29 13:02:03;;;;;;;16.20;12.68;;;21.10;65.40;;;;;;5082597;28;20130;-73
2021/10/29 13:04:42;;;;;;;16.42;13.02;;;21.20;64.40;;;;;;5113972;28;20040;-72
2021/10/29 13:07:09;;;;;;;14.70;12.15;;;21.50;63.50;;;;;;5114149;28;20151;-72
2021/10/29 13:09:38;;;;;;;14.30;11.73;;;21.30;64.10;;;;;;5114089;28;20051;-72
2021/10/29 13:12:11;;;;;;;14.27;12.77;;;21.00;64.60;;;;;;5114121;28;20122;-73
2021/10/29 13:14:40;;;;;;;14.57;13.07;;;20.70;66.30;;;;;;5113401;28;20050;-71
2021/10/29 13:17:11;;;;;;;14.43;11.32;;;20.80;65.70;;;;;;5114092;28;20407;-72
2021/10/29 13:19:57;;;;;;;13.32;11.82;;;21.10;64.80;;;;;;5114119;28;20043;-72
2021/10/29 13:36:19;;;;;;;13.65;11.15;;;20.20;66.70;;;;;;5113774;28;20590;-74
2021/10/29 13:52:35;;;;;;;14.15;12.02;;;19.40;68.80;;;;;;5113142;28;20108;-71
2021/10/29 13:55:20;;;;;;;14.10;12.10;;;19.10;70.20;;;;;;5112793;28;20039;-73
2021/10/29 13:58:06;;;;;;;12.02;10.45;;;19.00;71.30;;;;;;5113567;28;20471;-72
2021/10/29 14:00:48;;;;;;;14.20;11.85;;;19.20;71.60;;;;;;5113023;28;20047;-72
2021/10/29 14:28:18;;;;;;;14.18;11.68;;;18.90;73.30;;;;;;5112658;28;20078;-74
2021/10/29 14:30:53;;;;;;;14.95;12.43;;;18.70;74.10;;;;;;5112829;28;20057;-73
2021/10/29 14:33:23;;;;;;;18.48;12.90;;;18.50;74.70;;;;;;5112050;28;20135;-72
2021/10/29 14:35:53;;;;;;;17.77;13.25;;;18.20;75.80;;;;;;5112845;28;20043;-72
2021/10/29 14:38:27;;;;;;;20.48;12.85;;;17.70;77.40;;;;;;5112368;28;20048;-71
2021/10/29 14:40:58;;;;;;;14.95;12.27;;;17.70;78.10;;;;;;5112160;28;20449;-71
2021/10/29 14:43:28;;;;;;;20.98;14.50;;;17.00;80.20;;;;;;5111819;28;20043;-72
2021/10/29 14:46:03;;;;;;;17.95;12.80;;;16.60;82.50;;;;;;5112239;28;20040;-72
2021/10/29 14:48:39;;;;;;;16.20;13.00;;;16.40;84.30;;;;;;5112379;28;20086;-72
2021/10/29 14:51:26;;;;;;;18.08;13.32;;;16.00;86.70;;;;;;5112581;28;20446;-73
2021/10/29 15:05:27;;;;;;;17.75;13.65;;;15.00;97.50;;;;;;5111618;28;20047;-73
2021/10/29 15:16:44;;;;;;;19.83;13.85;;;14.30;99.90;;;;;;5111991;28;20059;-74
2021/10/29 15:25:02;;;;;;;17.98;14.52;;;13.90;99.90;;;;;;5111357;28;20070;-73
2021/10/29 15:27:38;;;;;;;21.55;14.43;;;13.60;99.90;;;;;;5111935;28;20525;-74
2021/10/29 15:30:10;;;;;;;30.60;18.60;;;13.40;99.90;;;;;;5111937;28;20048;-73
2021/10/29 15:32:50;;;;;;;72.13;38.70;;;13.10;99.90;;;;;;5111975;28;20075;-74
2021/10/29 15:43:50;;;;;;;22.67;14.85;;;12.30;99.90;;;;;;5111415;28;20077;-74
2021/10/29 15:46:21;;;;;;;23.63;15.93;;;12.30;99.90;;;;;;5111749;28;20138;-72
2021/10/29 15:48:53;;;;;;;25.75;17.25;;;12.20;99.90;;;;;;5111502;28;20075;-72
2021/10/29 15:51:21;;;;;;;23.45;17.15;;;12.00;99.90;;;;;;5112040;28;20058;-72
2021/10/29 15:53:48;;;;;;;26.60;16.88;;;11.90;99.90;;;;;;5111195;28;20039;-72
2021/10/29 15:56:24;;;;;;;21.60;16.70;;;11.70;99.90;;;;;;5111337;28;20044;-75
2021/10/29 15:58:57;;;;;;;20.05;14.40;;;11.60;99.90;;;;;;5111775;28;20051;-73
2021/10/29 16:01:33;;;;;;;19.42;15.75;;;11.40;99.90;;;;;;5111717;28;20090;-73
2021/10/29 16:17:00;;;;;;;20.58;16.77;;;11.30;99.90;;;;;;5112056;28;20089;-73
2021/10/29 16:17:51;;;;;;;24.30;17.15;;;10.40;99.90;;;;;;5115101;28;20070;-73
2021/10/29 16:20:18;;;;;;;22.40;15.90;;;10.30;99.90;;;;;;5115364;28;20043;-73
2021/10/29 16:22:44;;;;;;;20.80;15.73;;;10.20;99.90;;;;;;5115225;28;20047;-72